createdAt,value
2018-09-01T00:01:30.315Z,58.90
2018-09-01T00:03:58.537Z,58.90
2018-09-01T00:06:26.799Z,58.40
2018-09-01T00:08:55.767Z,58.70
2018-09-01T00:11:24.035Z,58.70
2018-09-01T00:13:52.289Z,59.00
2018-09-01T00:16:20.501Z,58.80
2018-09-01T00:18:49.480Z,58.90
2018-09-01T00:21:17.749Z,58.80
2018-09-01T00:23:45.985Z,58.60
2018-09-01T00:26:14.209Z,59.70
2018-09-01T00:28:42.428Z,58.80
2018-09-01T00:31:10.696Z,58.60
2018-09-01T00:33:39.656Z,58.80
2018-09-01T00:36:07.924Z,58.80
2018-09-01T00:38:36.121Z,58.60
2018-09-01T00:41:05.110Z,58.80
2018-09-01T00:43:33.371Z,58.80
2018-09-01T00:46:01.591Z,59.30
2018-09-01T00:48:29.847Z,58.70
2018-09-01T00:50:58.097Z,58.60
2018-09-01T00:53:26.263Z,58.60
2018-09-01T00:55:54.530Z,58.80
2018-09-01T00:58:22.767Z,58.70
2018-09-01T01:00:51.762Z,59.10
2018-09-01T01:03:19.972Z,59.10
2018-09-01T01:05:48.190Z,58.80
2018-09-01T01:08:16.454Z,59.20
2018-09-01T01:10:44.701Z,59.30
2018-09-01T01:13:12.914Z,59.50
2018-09-01T01:15:41.135Z,60.10
2018-09-01T01:18:09.390Z,61.60
2018-09-01T01:20:38.408Z,60.10
2018-09-01T01:23:06.666Z,60.10
2018-09-01T01:25:35.628Z,59.60
2018-09-01T01:28:03.846Z,59.60
2018-09-01T01:30:32.094Z,59.20
2018-09-01T01:33:00.358Z,59.00
2018-09-01T01:35:28.623Z,59.00
2018-09-01T01:37:56.832Z,59.00
2018-09-01T01:40:25.814Z,59.00
2018-09-01T01:42:54.044Z,58.90
2018-09-01T01:45:22.298Z,59.60
2018-09-01T01:47:50.554Z,59.50
2018-09-01T01:50:19.558Z,58.80
2018-09-01T01:52:48.542Z,59.00
2018-09-01T01:55:17.534Z,58.80
2018-09-01T01:57:46.531Z,58.80
2018-09-01T02:00:15.538Z,58.90
2018-09-01T02:02:44.568Z,61.00
2018-09-01T02:05:12.810Z,61.00
2018-09-01T02:07:41.068Z,59.10
2018-09-01T02:10:09.316Z,58.80
2018-09-01T02:12:37.554Z,58.80
2018-09-01T02:15:05.793Z,58.70
2018-09-01T02:17:34.050Z,58.70
2018-09-01T02:20:02.304Z,58.80
2018-09-01T02:22:30.523Z,59.00
2018-09-01T02:24:59.547Z,58.60
2018-09-01T02:27:28.573Z,58.90
2018-09-01T02:29:56.777Z,58.90
2018-09-01T02:32:24.998Z,58.70
2018-09-01T02:34:53.207Z,58.60
2018-09-01T02:37:21.471Z,58.70
2018-09-01T02:39:49.711Z,58.60
2018-09-01T02:42:18.687Z,58.50
2018-09-01T02:44:47.667Z,58.60
2018-09-01T02:47:15.935Z,58.50
2018-09-01T02:49:44.179Z,58.50
2018-09-01T02:52:12.399Z,58.50
2018-09-01T02:54:40.659Z,59.00
2018-09-01T02:57:08.923Z,58.20
2018-09-01T02:59:37.178Z,58.30
2018-09-01T03:02:05.419Z,58.10
2018-09-01T03:04:33.671Z,58.10
2018-09-01T03:07:01.885Z,58.20
2018-09-01T03:09:30.865Z,58.20
2018-09-01T03:11:59.083Z,58.20
2018-09-01T03:14:27.331Z,58.10
2018-09-01T03:16:56.363Z,58.10
2018-09-01T03:19:24.604Z,58.20
2018-09-01T03:21:53.572Z,58.10
2018-09-01T03:24:21.791Z,58.10
2018-09-01T03:26:49.988Z,58.30
2018-09-01T03:29:18.219Z,58.20
2018-09-01T03:31:47.183Z,58.00
2018-09-01T03:34:15.425Z,58.00
2018-09-01T03:36:43.630Z,58.00
2018-09-01T03:39:11.869Z,58.00
2018-09-01T03:41:40.070Z,58.00
2018-09-01T03:44:08.292Z,58.10
2018-09-01T03:46:37.272Z,58.00
2018-09-01T03:49:05.532Z,57.90
2018-09-01T03:51:33.742Z,58.40
2018-09-01T03:54:02.771Z,58.00
2018-09-01T03:56:31.028Z,57.90
2018-09-01T03:58:59.290Z,58.00
2018-09-01T04:01:28.255Z,57.90
2018-09-01T04:03:56.527Z,57.80
2018-09-01T04:06:24.774Z,57.90
2018-09-01T04:08:52.984Z,57.90
2018-09-01T04:11:21.186Z,57.90
2018-09-01T04:13:50.216Z,57.90
2018-09-01T04:16:18.416Z,57.80
2018-09-01T04:18:46.682Z,57.70
2018-09-01T04:21:14.885Z,57.80
2018-09-01T04:23:43.144Z,57.80
2018-09-01T04:26:11.346Z,57.80
2018-09-01T04:28:39.563Z,57.80
2018-09-01T04:31:07.810Z,57.80
2018-09-01T04:33:36.840Z,57.70
2018-09-01T04:36:05.040Z,57.80
2018-09-01T04:38:33.252Z,57.70
2018-09-01T04:41:02.228Z,57.80
2018-09-01T04:43:30.467Z,57.80
2018-09-01T04:45:58.676Z,57.80
2018-09-01T04:48:26.900Z,57.80
2018-09-01T04:50:55.156Z,57.70
2018-09-01T04:53:24.185Z,57.60
2018-09-01T04:55:52.419Z,57.60
2018-09-01T04:58:20.652Z,57.60
2018-09-01T05:00:48.901Z,57.60
2018-09-01T05:03:17.117Z,57.60
2018-09-01T05:05:45.354Z,57.50
2018-09-01T05:08:13.606Z,57.60
2018-09-01T05:10:41.806Z,57.50
2018-09-01T05:13:10.070Z,57.50
2018-09-01T05:15:39.090Z,59.30
2018-09-01T05:18:07.342Z,59.30
2018-09-01T05:20:36.313Z,58.20
2018-09-01T05:23:04.532Z,58.20
2018-09-01T05:25:32.799Z,58.20
2018-09-01T05:28:01.821Z,57.70
2018-09-01T05:30:30.062Z,57.70
2018-09-01T05:32:59.048Z,57.70
2018-09-01T05:35:28.028Z,58.90
2018-09-01T05:37:56.281Z,58.90
2018-09-01T05:40:24.480Z,57.80
2018-09-01T05:42:53.472Z,58.00
2018-09-01T05:45:22.501Z,60.10
2018-09-01T05:47:50.744Z,60.00
2018-09-01T05:50:19.002Z,58.10
2018-09-01T05:52:47.251Z,58.40
2018-09-01T05:55:15.536Z,58.10
2018-09-01T05:57:43.740Z,57.70
2018-09-01T06:00:11.993Z,57.70
2018-09-01T06:02:40.253Z,57.60
2018-09-01T06:05:08.456Z,57.60
2018-09-01T06:07:36.674Z,58.00
2018-09-01T06:10:04.931Z,57.80
2018-09-01T06:12:33.165Z,57.70
2018-09-01T06:15:01.368Z,58.00
2018-09-01T06:17:29.680Z,57.80
2018-09-01T06:19:57.903Z,57.60
2018-09-01T06:22:26.119Z,58.00
2018-09-01T06:24:54.389Z,57.70
2018-09-01T06:27:22.630Z,57.70
2018-09-01T06:29:50.853Z,57.80
2018-09-01T06:32:19.871Z,57.80
2018-09-01T06:34:48.111Z,57.80
2018-09-01T06:37:16.334Z,57.90
2018-09-01T06:39:44.536Z,58.40
2018-09-01T06:42:12.787Z,58.20
2018-09-01T06:44:41.041Z,58.00
2018-09-01T06:47:10.082Z,57.90
2018-09-01T06:49:38.285Z,57.90
2018-09-01T06:52:06.517Z,57.50
2018-09-01T06:54:34.759Z,56.80
2018-09-01T06:57:03.780Z,56.70
2018-09-01T06:59:32.018Z,56.70
2018-09-01T07:02:00.279Z,56.50
2018-09-01T07:04:28.494Z,56.70
2018-09-01T07:06:56.717Z,56.40
2018-09-01T07:09:24.990Z,56.50
2018-09-01T07:11:53.301Z,55.70
2018-09-01T07:14:22.211Z,56.40
2018-09-01T07:16:51.251Z,56.10
2018-09-01T07:19:19.456Z,56.10
2018-09-01T07:21:48.021Z,56.20
2018-09-01T07:24:16.294Z,57.00
2018-09-01T07:26:44.545Z,56.70
2018-09-01T07:29:12.810Z,56.70
2018-09-01T07:31:41.015Z,55.80
2018-09-01T07:34:09.231Z,56.00
2018-09-01T07:36:38.264Z,56.20
2018-09-01T07:39:06.525Z,56.20
2018-09-01T07:41:35.506Z,56.60
2018-09-01T07:44:04.481Z,56.40
2018-09-01T07:46:32.752Z,56.40
2018-09-01T07:49:01.000Z,56.60
2018-09-01T07:51:29.236Z,56.30
2018-09-01T07:53:58.209Z,55.00
2018-09-01T07:56:27.232Z,56.10
2018-09-01T07:58:56.211Z,54.40
2018-09-01T08:01:25.246Z,54.20
2018-09-01T08:03:53.499Z,54.20
2018-09-01T08:06:21.768Z,55.40
2018-09-01T08:08:50.811Z,55.00
2018-09-01T08:11:19.012Z,55.00
2018-09-01T08:13:47.257Z,55.60
2018-09-01T08:16:15.540Z,55.00
2018-09-01T08:18:43.854Z,52.70
2018-09-01T08:21:12.078Z,54.70
2018-09-01T08:23:40.296Z,53.50
2018-09-01T08:26:08.571Z,55.10
2018-09-01T08:28:36.773Z,52.10
2018-09-01T08:31:05.744Z,54.30
2018-09-01T08:33:34.009Z,54.30
2018-09-01T08:36:02.218Z,55.30
2018-09-01T08:38:31.211Z,52.90
2018-09-01T08:41:00.257Z,54.90
2018-09-01T08:43:28.461Z,54.70
2018-09-01T08:45:56.697Z,53.40
2018-09-01T08:48:24.935Z,54.40
2018-09-01T08:50:53.924Z,53.50
2018-09-01T08:53:22.897Z,54.80
2018-09-01T08:55:51.144Z,54.80
2018-09-01T08:58:19.421Z,54.50
2018-09-01T09:00:47.634Z,53.40
2018-09-01T09:03:16.671Z,53.40
2018-09-01T09:05:45.008Z,52.60
2018-09-01T09:08:13.201Z,52.10
2018-09-01T09:10:42.244Z,52.80
2018-09-01T09:13:10.488Z,52.70
2018-09-01T09:15:38.699Z,51.90
2018-09-01T09:18:06.933Z,51.40
2018-09-01T09:20:35.923Z,52.00
2018-09-01T09:23:04.905Z,52.00
2018-09-01T09:25:33.886Z,51.60
2018-09-01T09:28:02.105Z,51.60
2018-09-01T09:30:30.340Z,51.70
2018-09-01T09:32:58.581Z,52.20
2018-09-01T09:35:26.783Z,52.50
2018-09-01T09:37:55.040Z,51.50
2018-09-01T09:40:23.301Z,51.10
2018-09-01T09:42:51.557Z,52.00
2018-09-01T09:45:19.784Z,53.50
2018-09-01T09:47:47.980Z,51.60
2018-09-01T09:50:16.971Z,52.90
2018-09-01T09:52:45.953Z,51.50
2018-09-01T09:55:14.225Z,51.50
2018-09-01T09:57:42.421Z,51.40
2018-09-01T10:00:10.691Z,52.40
2018-09-01T10:02:38.932Z,50.80
2018-09-01T10:05:07.213Z,50.40
2018-09-01T10:07:35.463Z,50.40
2018-09-01T10:10:03.736Z,51.00
2018-09-01T10:12:31.985Z,50.80
2018-09-01T10:15:00.969Z,48.20
2018-09-01T10:17:29.948Z,51.60
2018-09-01T10:19:58.248Z,51.60
2018-09-01T10:22:26.470Z,50.30
2018-09-01T10:24:54.701Z,48.20
2018-09-01T10:27:23.730Z,51.00
2018-09-01T10:29:51.985Z,51.00
2018-09-01T10:32:20.995Z,50.20
2018-09-01T10:34:49.262Z,49.90
2018-09-01T10:37:17.462Z,50.50
2018-09-01T10:39:45.734Z,47.50
2018-09-01T10:42:13.964Z,48.00
2018-09-01T10:44:42.220Z,47.60
2018-09-01T10:47:10.453Z,48.30
2018-09-01T10:49:38.671Z,50.60
2018-09-01T10:52:06.882Z,47.20
2018-09-01T10:54:35.920Z,50.00
2018-09-01T10:57:05.056Z,50.10
2018-09-01T10:59:33.381Z,48.20
2018-09-01T11:02:01.478Z,49.40
2018-09-01T11:04:29.713Z,50.30
2018-09-01T11:06:57.929Z,49.60
2018-09-01T11:09:26.198Z,51.10
2018-09-01T11:11:54.414Z,50.70
2018-09-01T11:14:23.533Z,51.10
2018-09-01T11:16:52.505Z,47.60
2018-09-01T11:19:20.785Z,47.40
2018-09-01T11:21:49.039Z,49.10
2018-09-01T11:24:17.287Z,48.20
2018-09-01T11:26:45.793Z,50.10
2018-09-01T11:29:14.055Z,50.40
2018-09-01T11:31:43.155Z,47.50
2018-09-01T11:34:11.408Z,48.60
2018-09-01T11:36:40.487Z,50.80
2018-09-01T11:39:08.653Z,50.80
2018-09-01T11:41:38.574Z,49.80
2018-09-01T11:44:07.595Z,49.40
2018-09-01T11:46:35.832Z,49.40
2018-09-01T11:49:04.083Z,49.20
2018-09-01T11:51:32.345Z,50.70
2018-09-01T11:54:00.609Z,50.80
2018-09-01T11:56:28.885Z,48.90
2018-09-01T11:58:57.092Z,49.30
2018-09-01T12:01:25.323Z,47.80
2018-09-01T12:03:54.191Z,50.70
2018-09-01T12:06:23.235Z,48.80
2018-09-01T12:08:51.467Z,48.40
2018-09-01T12:11:19.711Z,48.80
2018-09-01T12:13:47.969Z,47.60
2018-09-01T12:16:16.219Z,44.00
2018-09-01T12:18:44.479Z,47.90
2018-09-01T12:21:13.523Z,48.60
2018-09-01T12:23:41.771Z,48.60
2018-09-01T12:26:09.983Z,48.70
2018-09-01T12:28:38.247Z,49.80
2018-09-01T12:31:06.491Z,49.00
2018-09-01T12:33:34.724Z,44.60
2018-09-01T12:36:02.973Z,49.60
2018-09-01T12:38:31.214Z,48.80
2018-09-01T12:41:00.244Z,49.70
2018-09-01T12:43:28.448Z,49.70
2018-09-01T12:45:56.760Z,46.00
2018-09-01T12:48:25.023Z,45.50
2018-09-01T12:50:54.027Z,49.30
2018-09-01T12:53:23.043Z,48.30
2018-09-01T12:55:51.244Z,48.30
2018-09-01T12:58:19.517Z,47.70
2018-09-01T13:00:47.797Z,46.40
2018-09-01T13:03:15.989Z,45.60
2018-09-01T13:05:44.266Z,46.10
2018-09-01T13:08:12.515Z,47.00
2018-09-01T13:10:40.780Z,47.20
2018-09-01T13:13:08.986Z,48.10
2018-09-01T13:15:37.246Z,47.30
2018-09-01T13:18:05.460Z,48.20
2018-09-01T13:20:33.686Z,44.60
2018-09-01T13:23:01.942Z,46.30
2018-09-01T13:25:31.022Z,46.50
2018-09-01T13:27:59.175Z,46.60
2018-09-01T13:30:27.424Z,49.00
2018-09-01T13:32:55.639Z,47.40
2018-09-01T13:35:24.616Z,47.60
2018-09-01T13:37:52.840Z,47.10
2018-09-01T13:40:21.047Z,47.20
2018-09-01T13:42:49.272Z,45.60
2018-09-01T13:45:18.270Z,45.40
2018-09-01T13:47:47.241Z,46.90
2018-09-01T13:50:15.451Z,46.90
2018-09-01T13:52:43.680Z,46.70
2018-09-01T13:55:11.927Z,45.60
2018-09-01T13:57:40.199Z,46.50
2018-09-01T14:00:08.396Z,47.40
2018-09-01T14:02:36.648Z,43.90
2018-09-01T14:05:04.898Z,44.90
2018-09-01T14:07:33.893Z,44.50
2018-09-01T14:10:02.924Z,45.90
2018-09-01T14:12:31.126Z,46.00
2018-09-01T14:14:59.374Z,46.60
2018-09-01T14:17:27.590Z,43.40
2018-09-01T14:19:55.882Z,45.00
2018-09-01T14:22:24.113Z,45.00
2018-09-01T14:24:52.323Z,46.20
2018-09-01T14:27:20.551Z,46.30
2018-09-01T14:29:48.794Z,45.40
2018-09-01T14:32:17.772Z,46.60
2018-09-01T14:34:46.799Z,45.90
2018-09-01T14:37:15.092Z,45.30
2018-09-01T14:39:44.080Z,47.10
2018-09-01T14:42:12.337Z,47.10
2018-09-01T14:44:41.353Z,45.50
2018-09-01T14:47:09.609Z,45.40
2018-09-01T14:49:37.830Z,46.60
2018-09-01T14:52:06.076Z,46.30
2018-09-01T14:54:34.339Z,47.80
2018-09-01T14:57:03.371Z,45.60
2018-09-01T14:59:31.573Z,45.70
2018-09-01T15:01:59.791Z,45.20
2018-09-01T15:04:28.057Z,47.40
2018-09-01T15:06:57.079Z,47.20
2018-09-01T15:09:25.315Z,47.20
2018-09-01T15:11:53.579Z,45.40
2018-09-01T15:14:21.831Z,46.80
2018-09-01T15:16:50.094Z,47.60
2018-09-01T15:19:18.279Z,44.40
2018-09-01T15:21:46.546Z,46.90
2018-09-01T15:24:14.752Z,46.00
2018-09-01T15:26:43.020Z,44.20
2018-09-01T15:29:11.981Z,46.50
2018-09-01T15:31:40.206Z,46.60
2018-09-01T15:34:08.419Z,47.10
2018-09-01T15:36:36.680Z,46.90
2018-09-01T15:39:05.656Z,45.70
2018-09-01T15:41:33.896Z,45.00
2018-09-01T15:44:02.150Z,46.70
2018-09-01T15:46:30.420Z,45.70
2018-09-01T15:48:58.672Z,47.40
2018-09-01T15:51:26.888Z,46.70
2018-09-01T15:53:55.176Z,46.60
2018-09-01T15:56:23.349Z,47.50
2018-09-01T15:58:51.572Z,47.80
2018-09-01T16:01:19.793Z,48.00
2018-09-01T16:03:48.085Z,47.40
2018-09-01T16:06:16.203Z,47.00
2018-09-01T16:08:45.218Z,47.90
2018-09-01T16:11:14.208Z,47.70
2018-09-01T16:13:43.238Z,48.10
2018-09-01T16:16:11.454Z,48.10
2018-09-01T16:18:39.706Z,47.70
2018-09-01T16:21:07.950Z,47.20
2018-09-01T16:23:36.168Z,45.70
2018-09-01T16:26:04.429Z,47.80
2018-09-01T16:28:32.670Z,47.90
2018-09-01T16:31:00.920Z,46.70
2018-09-01T16:33:29.158Z,47.40
2018-09-01T16:35:57.420Z,46.90
2018-09-01T16:38:28.942Z,46.90
2018-09-01T16:41:00.710Z,48.40
2018-09-01T16:43:29.750Z,48.10
2018-09-01T16:45:57.929Z,48.00
2018-09-01T16:48:26.461Z,48.40
2018-09-01T16:50:54.667Z,48.50
2018-09-01T16:53:22.891Z,48.10
2018-09-01T16:55:51.121Z,48.70
2018-09-01T16:58:19.342Z,49.10
2018-09-01T17:00:47.728Z,49.10
2018-09-01T17:03:15.819Z,49.20
2018-09-01T17:05:44.033Z,49.40
2018-09-01T17:08:12.265Z,49.30
2018-09-01T17:10:41.285Z,49.20
2018-09-01T17:13:09.494Z,49.20
2018-09-01T17:15:37.713Z,49.30
2018-09-01T17:18:05.957Z,49.30
2018-09-01T17:20:34.211Z,49.50
2018-09-01T17:23:02.454Z,49.80
2018-09-01T17:25:30.722Z,49.70
2018-09-01T17:27:59.775Z,49.80
2018-09-01T17:30:28.021Z,49.70
2018-09-01T17:32:56.226Z,49.70
2018-09-01T17:35:24.467Z,50.20
2018-09-01T17:37:52.674Z,50.00
2018-09-01T17:40:20.874Z,50.20
2018-09-01T17:42:49.153Z,50.70
2018-09-01T17:45:17.363Z,51.50
2018-09-01T17:47:45.608Z,50.10
2018-09-01T17:50:13.804Z,50.90
2018-09-01T17:52:42.032Z,50.90
2018-09-01T17:55:10.279Z,50.40
2018-09-01T17:57:38.527Z,54.10
2018-09-01T18:00:07.561Z,52.10
2018-09-01T18:02:35.814Z,52.10
2018-09-01T18:05:04.841Z,51.90
2018-09-01T18:07:33.089Z,51.90
2018-09-01T18:10:01.329Z,51.60
2018-09-01T18:12:30.323Z,52.90
2018-09-01T18:14:58.584Z,52.30
2018-09-01T18:17:27.602Z,51.80
2018-09-01T18:19:56.573Z,53.60
2018-09-01T18:22:24.813Z,53.80
2018-09-01T18:24:53.021Z,56.20
2018-09-01T18:27:21.257Z,53.80
2018-09-01T18:29:49.472Z,53.90
2018-09-01T18:32:17.682Z,53.30
2018-09-01T18:34:46.674Z,54.40
2018-09-01T18:37:15.729Z,56.10
2018-09-01T18:39:43.891Z,56.10
2018-09-01T18:42:12.110Z,53.50
2018-09-01T18:44:40.336Z,53.20
2018-09-01T18:47:08.538Z,53.50
2018-09-01T18:49:36.766Z,53.10
2018-09-01T18:52:04.994Z,53.30
2018-09-01T18:54:33.211Z,53.40
2018-09-01T18:57:01.468Z,53.30
2018-09-01T18:59:29.718Z,53.70
2018-09-01T19:01:57.993Z,54.60
2018-09-01T19:04:26.277Z,53.80
2018-09-01T19:06:55.290Z,54.50
2018-09-01T19:09:23.492Z,54.60
2018-09-01T19:11:51.738Z,53.90
2018-09-01T19:14:19.977Z,54.90
2018-09-01T19:16:48.230Z,56.60
2018-09-01T19:19:16.516Z,56.10
2018-09-01T19:21:44.730Z,55.30
2018-09-01T19:24:13.002Z,54.50
2018-09-01T19:26:41.255Z,54.20
2018-09-01T19:29:09.765Z,56.30
2018-09-01T19:31:38.044Z,55.40
2018-09-01T19:34:06.272Z,55.80
2018-09-01T19:36:34.497Z,55.90
2018-09-01T19:39:02.830Z,54.90
2018-09-01T19:41:30.941Z,54.40
2018-09-01T19:43:59.215Z,54.00
2018-09-01T19:46:28.160Z,54.70
2018-09-01T19:48:57.969Z,57.30
2018-09-01T19:51:27.055Z,56.40
2018-09-01T19:53:55.959Z,61.50
2018-09-01T19:56:24.944Z,55.30
2018-09-01T19:58:53.942Z,55.10
2018-09-01T20:01:22.919Z,54.40
2018-09-01T20:03:51.205Z,54.40
2018-09-01T20:06:19.461Z,54.30
2018-09-01T20:08:47.681Z,54.50
2018-09-01T20:11:15.936Z,54.80
2018-09-01T20:13:44.961Z,56.00
2018-09-01T20:16:13.205Z,56.10
2018-09-01T20:18:42.183Z,54.50
2018-09-01T20:21:10.401Z,54.50
2018-09-01T20:23:38.641Z,55.00
2018-09-01T20:26:07.637Z,54.90
2018-09-01T20:28:35.898Z,54.60
2018-09-01T20:31:04.143Z,54.10
2018-09-01T20:33:32.384Z,55.20
2018-09-01T20:36:01.409Z,54.00
2018-09-01T20:38:29.615Z,54.00
2018-09-01T20:40:57.871Z,54.20
2018-09-01T20:43:26.121Z,54.40
2018-09-01T20:45:54.337Z,54.00
2018-09-01T20:48:22.602Z,54.20
2018-09-01T20:50:50.842Z,54.10
2018-09-01T20:53:19.101Z,53.90
2018-09-01T20:55:47.352Z,54.20
2018-09-01T20:58:15.575Z,54.40
2018-09-01T21:00:43.787Z,54.00
2018-09-01T21:03:12.025Z,53.80
2018-09-01T21:05:40.249Z,53.80
2018-09-01T21:08:08.477Z,53.80
2018-09-01T21:10:36.739Z,53.60
2018-09-01T21:13:05.734Z,53.80
2018-09-01T21:15:34.795Z,53.80
2018-09-01T21:18:03.032Z,53.80
2018-09-01T21:20:31.255Z,53.80
2018-09-01T21:22:59.526Z,54.60
2018-09-01T21:25:27.772Z,53.70
2018-09-01T21:27:56.032Z,53.70
2018-09-01T21:30:25.048Z,53.40
2018-09-01T21:32:53.349Z,53.40
2018-09-01T21:35:21.577Z,53.40
2018-09-01T21:37:50.616Z,53.50
2018-09-01T21:40:18.833Z,53.50
2018-09-01T21:42:47.870Z,53.30
2018-09-01T21:45:16.128Z,53.40
2018-09-01T21:47:44.326Z,53.40
2018-09-01T21:50:12.597Z,53.20
2018-09-01T21:52:40.807Z,53.30
2018-09-01T21:55:09.077Z,53.20
2018-09-01T21:57:37.314Z,53.10
2018-09-01T22:00:05.570Z,53.20
2018-09-01T22:02:34.572Z,53.10
2018-09-01T22:05:02.789Z,53.10
2018-09-01T22:07:31.064Z,53.20
2018-09-01T22:09:59.387Z,52.90
2018-09-01T22:12:27.582Z,52.90
2018-09-01T22:14:55.830Z,53.00
2018-09-01T22:17:24.050Z,53.00
2018-09-01T22:19:52.269Z,52.90
2018-09-01T22:22:20.540Z,53.00
2018-09-01T22:24:48.796Z,53.50
2018-09-01T22:27:17.017Z,53.00
2018-09-01T22:29:46.010Z,52.90
2018-09-01T22:32:14.223Z,52.90
2018-09-01T22:34:42.477Z,52.90
2018-09-01T22:37:11.497Z,53.10
2018-09-01T22:39:39.753Z,53.10
2018-09-01T22:42:08.766Z,53.00
2018-09-01T22:44:37.028Z,53.00
2018-09-01T22:47:06.010Z,53.30
2018-09-01T22:49:35.005Z,53.20
2018-09-01T22:52:04.016Z,53.00
2018-09-01T22:54:32.279Z,53.00
2018-09-01T22:57:01.249Z,53.10
2018-09-01T22:59:29.485Z,53.20
2018-09-01T23:01:57.702Z,53.30
2018-09-01T23:04:25.950Z,53.10
2018-09-01T23:06:54.186Z,53.00
2018-09-01T23:09:22.409Z,52.90
2018-09-01T23:11:50.679Z,53.00
2018-09-01T23:14:18.919Z,52.90
2018-09-01T23:16:47.173Z,52.90
2018-09-01T23:19:16.213Z,52.90
2018-09-01T23:21:44.466Z,52.90
2018-09-01T23:24:13.426Z,53.30
2018-09-01T23:26:41.694Z,53.20
2018-09-01T23:29:09.944Z,53.00
2018-09-01T23:31:38.230Z,53.30
2018-09-01T23:34:06.434Z,52.90
2018-09-01T23:36:34.711Z,53.10
2018-09-01T23:39:02.938Z,53.00
2018-09-01T23:41:31.140Z,53.50
2018-09-01T23:43:59.375Z,53.00
2018-09-01T23:46:27.583Z,52.90
2018-09-01T23:48:55.822Z,53.00
2018-09-01T23:51:24.070Z,53.30
2018-09-01T23:53:52.332Z,53.00
2018-09-01T23:56:20.522Z,53.00
2018-09-01T23:58:49.524Z,53.10
